.
WxDataArchive / Data Records for 2009-10-23
2009-10-22 October 2009 2009-10-24

Data Records for Friday, 23 October 2009

Time	Temp	Chill	HIndex	Humid	Dewpt	 Wind 	HiWind	WindDir	Rain 	Barom 
-----	----	-----	------	-----	-----	------	------	-------	-----	----- 
00:00	49.8	48.6	49.8	94	48.1	4	13	112	0.00	29.927 
00:05	49.5	48.3	49.5	95	48.1	4	11	90	0.00	29.927 
00:10	49.2	47.9	49.2	95	47.8	4	12	90	0.00	29.927 
00:15	49.2	47.9	49.2	95	47.8	4	7	112	0.01	29.918 
00:20	49.1	49.1	49.1	95	47.7	3	8	90	0.00	29.918 
00:25	49.1	49.1	49.1	95	47.7	3	11	90	0.00	29.918 
00:30	48.9	47.6	48.9	95	47.5	4	11	90	0.00	29.931 
00:35	48.9	47.6	48.9	95	47.5	4	10	90	0.00	29.931 
00:40	48.8	47.5	48.8	95	47.4	4	10	90	0.00	29.931 
00:45	48.6	47.3	48.6	95	47.2	4	12	90	0.01	29.932 
00:50	48.5	47.1	48.5	95	47.1	4	13	90	0.00	29.932 
00:55	48.2	46.1	48.2	95	46.8	5	14	90	0.01	29.932 
01:00	48.0	45.9	48.0	95	46.6	5	12	90	0.00	29.935 
01:05	47.9	45.8	47.9	95	46.5	5	13	90	0.01	29.935 
01:10	47.7	46.2	47.7	95	46.3	4	11	90	0.00	29.935 
01:15	47.6	46.1	47.6	95	46.2	4	9	90	0.01	29.935 
01:20	47.6	46.1	47.6	95	46.2	4	12	90	0.00	29.935 
01:25	47.4	45.9	47.4	95	46.0	4	11	90	0.00	29.935 
01:30	47.4	45.9	47.4	95	46.0	4	7	90	0.00	29.919 
01:35	47.3	44.5	47.3	95	45.9	6	13	90	0.00	29.919 
01:40	47.3	45.8	47.3	95	45.9	4	11	90	0.00	29.919 
01:45	47.3	45.8	47.3	95	45.9	4	13	90	0.00	29.896 
01:50	47.3	45.8	47.3	95	45.9	4	11	90	0.00	29.896 
01:55	47.1	44.8	47.1	95	45.7	5	12	90	0.00	29.896 
02:00	47.1	47.1	47.1	95	45.7	3	11	90	0.00	29.889 
02:05	47.1	45.5	47.1	95	45.7	4	9	90	0.00	29.889 
02:10	47.1	47.1	47.1	95	45.7	3	9	90	0.00	29.889 
02:15	47.0	45.4	47.0	95	45.6	4	10	90	0.00	29.879 
02:20	47.0	45.4	47.0	93	45.1	4	7	90	0.00	29.879 
02:25	47.0	44.7	47.0	95	45.6	5	12	90	0.00	29.879 
02:30	47.0	45.4	47.0	95	45.6	4	10	90	0.01	29.884 
02:35	47.0	45.4	47.0	95	45.6	4	10	90	0.00	29.884 
02:40	47.0	45.4	47.0	95	45.6	4	10	90	0.00	29.884 
02:45	47.0	45.4	47.0	95	45.6	4	9	90	0.00	29.871 
02:50	47.0	45.4	47.0	95	45.6	4	11	112	0.00	29.871 
02:55	47.0	45.4	47.0	95	45.6	4	10	90	0.00	29.871 
03:00	47.0	45.4	47.0	95	45.6	4	11	90	0.00	29.868 
03:05	47.1	45.5	47.1	95	45.7	4	10	90	0.00	29.868 
03:10	47.1	44.8	47.1	95	45.7	5	12	90	0.00	29.868 
03:15	47.1	45.5	47.1	95	45.7	4	9	90	0.00	29.860 
03:20	47.1	45.5	47.1	95	45.7	4	9	90	0.00	29.860 
03:25	47.3	45.0	47.3	95	45.9	5	12	90	0.00	29.860 
03:30	47.3	45.0	47.3	95	45.9	5	11	112	0.00	29.854 
03:35	47.3	45.0	47.3	95	45.9	5	14	90	0.00	29.854 
03:40	47.4	45.9	47.4	95	46.0	4	9	90	0.00	29.854 
03:45	47.4	45.9	47.4	96	46.3	4	10	90	0.00	29.849 
03:50	47.4	47.4	47.4	95	46.0	3	6	90	0.00	29.849 
03:55	47.6	46.1	47.6	96	46.5	4	10	90	0.00	29.849 
04:00	47.6	45.4	47.6	96	46.5	5	10	90	0.00	29.836 
04:05	47.6	46.1	47.6	96	46.5	4	10	90	0.00	29.836 
04:10	47.7	47.7	47.7	96	46.6	3	9	90	0.01	29.836 
04:15	47.7	46.2	47.7	96	46.6	4	10	112	0.00	29.833 
04:20	47.9	46.4	47.9	96	46.8	4	10	90	0.00	29.833 
04:25	47.9	47.9	47.9	96	46.8	3	11	90	0.01	29.833 
04:30	48.0	45.9	48.0	96	46.9	5	12	90	0.00	29.824 
04:35	48.0	48.0	48.0	96	46.9	3	10	90	0.01	29.824 
04:40	48.2	48.2	48.2	96	47.1	3	9	90	0.01	29.824 
04:45	48.2	48.2	48.2	96	47.1	3	5	112	0.00	29.824 
04:50	48.3	48.3	48.3	96	47.2	2	6	90	0.01	29.824 
04:55	48.5	48.5	48.5	96	47.4	2	5	90	0.01	29.824 
05:00	48.5	48.5	48.5	96	47.4	3	6	112	0.00	29.810 
05:05	48.6	47.3	48.6	96	47.5	4	7	112	0.01	29.810 
05:10	48.6	48.6	48.6	96	47.5	3	7	90	0.00	29.810 
05:15	48.8	48.8	48.8	96	47.7	3	9	90	0.00	29.794 
05:20	48.9	48.9	48.9	96	47.8	3	6	90	0.00	29.794 
05:25	48.9	48.9	48.9	96	47.8	3	7	90	0.01	29.794 
05:30	49.1	49.1	49.1	96	48.0	3	7	112	0.00	29.783 
05:35	49.2	49.2	49.2	96	48.1	3	7	90	0.00	29.783 
05:40	49.2	47.9	49.2	96	48.1	4	10	90	0.00	29.783 
05:45	49.4	49.4	49.4	96	48.3	2	5	90	0.01	29.775 
05:50	49.5	48.3	49.5	96	48.4	4	7	90	0.00	29.775 
05:55	49.5	48.3	49.5	96	48.4	4	7	90	0.01	29.775 
06:00	49.6	48.4	49.6	96	48.5	4	13	90	0.00	29.759 
06:05	49.8	48.6	49.8	96	48.7	4	10	90	0.01	29.759 
06:10	49.8	48.6	49.8	96	48.7	4	12	90	0.01	29.759 
06:15	49.9	49.9	49.9	96	48.8	3	6	90	0.00	29.757 
06:20	49.9	49.9	49.9	96	48.8	3	7	90	0.01	29.757 
06:25	50.1	50.1	50.1	96	49.0	4	7	90	0.02	29.757 
06:30	50.1	50.1	50.1	96	49.0	4	9	90	0.01	29.745 
06:35	50.2	50.2	50.2	96	49.1	5	14	90	0.01	29.745 
06:40	50.4	50.4	50.4	96	49.3	5	13	90	0.02	29.745 
06:45	50.4	50.4	50.4	96	49.3	4	10	112	0.01	29.738 
06:50	50.5	50.5	50.5	96	49.4	4	12	90	0.01	29.738 
06:55	50.5	50.5	50.5	96	49.4	4	11	90	0.02	29.738 
07:00	50.5	50.5	50.5	96	49.4	4	7	90	0.02	29.718 
07:05	50.7	50.7	50.7	96	49.6	4	9	90	0.01	29.718 
07:10	50.8	50.8	50.8	96	49.7	4	7	90	0.01	29.718 
07:15	50.8	50.8	50.8	96	49.7	3	13	68	0.02	29.714 
07:20	51.0	51.0	51.0	96	49.9	5	11	90	0.02	29.714 
07:25	51.0	51.0	51.0	96	49.9	4	11	90	0.01	29.714 
07:30	51.0	51.0	51.0	96	49.9	4	9	90	0.02	29.711 
07:35	51.1	51.1	51.1	96	50.0	4	10	90	0.01	29.711 
07:40	51.1	51.1	51.1	96	50.0	4	9	90	0.05	29.711 
07:45	51.1	51.1	51.1	96	50.0	4	10	90	0.03	29.699 
07:50	51.1	51.1	51.1	96	50.0	3	7	90	0.04	29.699 
07:55	51.1	51.1	51.1	96	50.0	3	7	90	0.02	29.699 
08:00	51.3	51.3	51.3	96	50.2	4	11	112	0.03	29.694 
08:05	51.3	51.3	51.3	96	50.2	2	6	112	0.04	29.694 
08:10	51.3	51.3	51.3	96	50.2	2	4	90	0.05	29.694 
08:15	51.3	51.3	51.3	97	50.5	4	9	90	0.03	29.685 
08:20	51.4	51.4	51.4	97	50.6	5	11	90	0.04	29.685 
08:25	51.6	51.6	51.6	97	50.8	4	10	90	0.05	29.685 
08:30	51.7	51.7	51.7	97	50.9	5	10	90	0.06	29.672 
08:35	51.7	51.7	51.7	97	50.9	5	12	90	0.05	29.672 
08:40	51.7	51.7	51.7	97	50.9	7	14	90	0.02	29.672 
08:45	51.9	51.9	51.9	97	51.1	6	17	90	0.02	29.658 
08:50	51.9	51.9	51.9	97	51.1	4	10	90	0.02	29.658 
08:55	52.0	52.0	52.0	97	51.2	6	12	90	0.00	29.658 
09:00	52.0	52.0	52.0	97	51.2	7	19	90	0.01	29.642 
09:05	52.2	52.2	52.2	97	51.4	5	19	90	0.01	29.642 
09:10	52.2	52.2	52.2	97	51.4	6	12	90	0.02	29.642 
09:15	52.3	52.3	52.3	97	51.5	5	13	90	0.01	29.637 
09:20	52.3	52.3	52.3	97	51.5	5	11	90	0.01	29.637 
09:25	52.5	52.5	52.5	97	51.7	5	14	90	0.01	29.637 
09:30	52.5	52.5	52.5	97	51.7	5	11	90	0.01	29.629 
09:35	52.5	52.5	52.5	97	51.7	4	14	90	0.01	29.629 
09:40	52.6	52.6	52.6	97	51.8	4	10	90	0.00	29.629 
09:45	52.6	52.6	52.6	97	51.8	3	6	90	0.01	29.620 
09:50	52.8	52.8	52.8	97	52.0	3	6	90	0.00	29.620 
09:55	52.9	52.9	52.9	97	52.1	3	6	90	0.01	29.620 
10:00	53.1	53.1	53.1	97	52.3	2	6	90	0.01	29.612 
10:05	53.2	53.2	53.2	97	52.4	3	6	90	0.00	29.612 
10:10	53.2	53.2	53.2	97	52.4	2	7	112	0.01	29.612 
10:15	53.3	53.3	53.3	97	52.5	3	8	90	0.01	29.603 
10:20	53.5	53.5	53.5	97	52.7	2	8	90	0.01	29.603 
10:25	53.6	53.6	53.6	97	52.8	3	6	90	0.00	29.603 
10:30	53.6	53.6	53.6	97	52.8	3	7	90	0.00	29.590 
10:35	53.8	53.8	53.8	97	53.0	3	9	90	0.00	29.590 
10:40	53.9	53.9	53.9	97	53.1	4	12	90	0.01	29.590 
10:45	53.9	53.9	53.9	97	53.1	2	10	90	0.00	29.579 
10:50	54.1	54.1	54.1	97	53.3	2	9	90	0.00	29.579 
10:55	54.2	54.2	54.2	97	53.4	2	6	112	0.01	29.579 
11:00	54.4	54.4	54.4	97	53.6	2	7	90	0.00	29.573 
11:05	54.7	54.7	54.7	97	53.9	2	5	90	0.01	29.573 
11:10	54.8	54.8	54.8	97	54.0	1	5	90	0.00	29.573 
11:15	55.1	55.1	55.1	97	54.3	2	4	68	0.00	29.573 
11:20	55.6	55.6	55.6	97	54.8	1	3	112	0.00	29.573 
11:25	56.0	56.0	56.0	97	55.2	1	4	45	0.01	29.573 
11:30	56.5	56.5	56.5	97	55.7	1	4	135	0.00	29.559 
11:35	56.9	56.9	56.9	97	56.1	2	4	112	0.00	29.559 
11:40	57.3	57.3	57.3	97	56.5	2	6	68	0.00	29.559 
11:45	57.6	57.6	57.6	97	56.8	2	5	90	0.00	29.549 
11:50	57.8	57.8	57.8	97	57.0	2	5	68	0.00	29.549 
11:55	58.0	58.0	58.0	97	57.2	2	5	90	0.00	29.549 
12:00	58.1	58.1	58.1	97	57.3	2	5	90	0.00	29.539 
12:05	58.3	58.3	58.3	97	57.5	2	5	112	0.00	29.539 
12:10	58.4	58.4	58.4	97	57.5	2	6	112	0.00	29.539 
12:15	58.4	58.4	58.4	97	57.5	2	5	112	0.00	29.528 
12:20	58.6	58.6	58.6	97	57.7	2	7	90	0.00	29.528 
12:25	58.6	58.6	58.6	97	57.7	2	5	90	0.00	29.528 
12:30	58.6	58.6	58.6	97	57.7	1	4	112	0.00	29.527 
12:35	58.7	58.7	58.7	97	57.8	3	7	112	0.00	29.527 
12:40	58.7	58.7	58.7	97	57.8	2	5	112	0.00	29.527 
12:45	58.9	58.9	58.9	97	58.0	2	6	112	0.01	29.521 
12:50	58.9	58.9	58.9	97	58.0	1	7	112	0.00	29.521 
12:55	59.0	59.0	59.0	97	58.1	2	7	112	0.00	29.521 
13:00	59.2	59.2	59.2	97	58.3	2	6	90	0.00	29.510 
13:05	59.3	59.3	59.3	97	58.4	2	7	90	0.00	29.510 
13:10	59.5	59.5	59.5	97	58.6	2	5	112	0.00	29.510 
13:15	59.6	59.6	59.6	97	58.7	2	5	112	0.00	29.502 
13:20	59.6	59.6	59.6	97	58.7	2	6	90	0.00	29.502 
13:25	59.6	59.6	59.6	97	58.7	2	6	112	0.00	29.502 
13:30	59.6	59.6	59.6	97	58.7	3	10	90	0.00	29.494 
13:35	59.8	59.8	59.8	97	58.9	2	4	112	0.00	29.494 
13:40	59.8	59.8	59.8	97	58.9	2	6	90	0.00	29.494 
13:45	59.8	59.8	59.8	96	58.7	2	6	90	0.00	29.486 
13:50	59.8	59.8	59.8	96	58.7	2	6	112	0.00	29.486 
13:55	59.8	59.8	59.8	96	58.7	2	6	90	0.00	29.486 
14:00	59.8	59.8	59.8	96	58.7	2	5	90	0.00	29.480 
14:05	59.8	59.8	59.8	96	58.7	1	3	135	0.00	29.480 
14:10	59.8	59.8	59.8	96	58.7	1	4	90	0.00	29.480 
14:15	59.9	59.9	59.9	96	58.8	2	6	90	0.00	29.473 
14:20	59.9	59.9	59.9	96	58.8	1	3	135	0.00	29.473 
14:25	59.9	59.9	59.9	96	58.8	1	3	45	0.00	29.473 
14:30	60.1	60.1	60.1	96	59.0	2	5	90	0.00	29.464 
14:35	60.1	60.1	60.1	96	59.0	1	5	90	0.00	29.464 
14:40	60.1	60.1	60.1	96	59.0	2	5	112	0.00	29.464 
14:45	60.2	60.2	60.2	96	59.1	2	4	90	0.00	29.461 
14:50	60.2	60.2	60.2	96	59.1	2	6	90	0.00	29.461 
14:55	60.2	60.2	60.2	96	59.1	2	4	90	0.00	29.461 
15:00	60.4	60.4	60.4	96	59.3	1	4	112	0.00	29.453 
15:05	60.4	60.4	60.4	96	59.3	2	5	135	0.00	29.453 
15:10	60.5	60.5	60.5	96	59.4	1	4	112	0.00	29.453 
15:15	60.5	60.5	60.5	96	59.4	0	3	112	0.00	29.445 
15:20	60.7	60.7	60.7	96	59.6	1	6	112	0.00	29.445 
15:25	60.9	60.9	60.9	96	59.7	0	2	112	0.00	29.445 
15:30	61.0	61.0	61.0	96	59.8	1	5	45	0.00	29.439 
15:35	61.3	61.3	61.3	96	60.1	1	3	90	0.00	29.439 
15:40	61.5	61.5	61.5	96	60.3	2	4	90	0.00	29.439 
15:45	61.6	61.6	61.6	96	60.4	1	4	90	0.00	29.428 
15:50	62.1	62.1	62.1	96	60.9	1	4	45	0.00	29.428 
15:55	62.6	62.6	62.6	96	61.4	1	7	90	0.00	29.428 
16:00	62.9	62.9	62.9	96	61.7	2	7	68	0.00	29.423 
16:05	63.1	63.1	63.1	95	61.6	2	9	68	0.00	29.423 
16:10	63.2	63.2	63.2	94	61.4	3	7	90	0.00	29.423 
16:15	63.5	63.5	63.5	94	61.7	2	10	68	0.00	29.417 
16:20	63.7	63.7	63.7	93	61.6	2	7	112	0.00	29.417 
16:25	63.9	63.9	63.9	92	61.5	3	7	112	0.00	29.417 
16:30	64.2	64.2	64.2	92	61.8	2	6	135	0.00	29.411 
16:35	64.2	64.2	64.2	91	61.5	1	4	68	0.00	29.411 
16:40	64.3	64.3	64.3	91	61.6	2	6	248	0.00	29.411 
16:45	64.7	64.7	64.7	90	61.7	2	5	248	0.00	29.422 
16:50	64.8	64.8	64.8	89	61.5	2	5	270	0.00	29.422 
16:55	65.0	65.0	65.0	88	61.4	2	6	270	0.00	29.422 
17:00	65.2	65.2	65.2	88	61.6	2	5	248	0.00	29.427 
17:05	65.2	65.2	65.2	87	61.2	4	12	248	0.00	29.427 
17:10	65.3	65.3	65.3	85	60.7	2	6	248	0.00	29.427 
17:15	65.5	65.5	65.5	83	60.2	3	6	248	0.00	29.434 
17:20	65.6	65.6	65.6	82	59.9	3	10	248	0.00	29.434 
17:25	65.6	65.6	65.6	82	59.9	1	4	270	0.00	29.434 
17:30	65.5	65.5	65.5	82	59.9	1	5	270	0.00	29.438 
17:35	65.3	65.3	65.3	83	60.0	1	3	248	0.00	29.438 
17:40	64.5	64.5	64.5	84	59.6	3	10	270	0.01	29.438 
17:45	63.7	63.7	63.7	86	59.4	3	6	248	0.00	29.454 
17:50	63.2	63.2	63.2	86	58.9	2	6	248	0.00	29.454 
17:55	62.7	62.7	62.7	86	58.4	3	7	248	0.00	29.454 
18:00	62.6	62.6	62.6	86	58.3	3	9	248	0.00	29.460 
18:05	62.3	62.3	62.3	85	57.7	4	9	270	0.00	29.460 
18:10	62.0	62.0	62.0	85	57.4	4	10	248	0.00	29.460 
18:15	61.8	61.8	61.8	86	57.6	2	5	248	0.00	29.468 
18:20	61.5	61.5	61.5	85	56.9	2	5	270	0.00	29.468 
18:25	61.2	61.2	61.2	85	56.6	2	6	270	0.00	29.468 
18:30	61.2	61.2	61.2	85	56.6	3	10	248	0.00	29.470 
18:35	61.0	61.0	61.0	85	56.5	2	5	270	0.00	29.470 
18:40	60.9	60.9	60.9	84	56.0	3	6	248	0.00	29.470 
18:45	60.7	60.7	60.7	84	55.8	2	7	248	0.00	29.480 
18:50	60.4	60.4	60.4	84	55.5	3	7	248	0.00	29.480 
18:55	60.2	60.2	60.2	84	55.3	3	9	248	0.00	29.480 
19:00	60.1	60.1	60.1	83	54.9	3	11	248	0.00	29.492 
19:05	59.9	59.9	59.9	83	54.7	3	9	248	0.00	29.492 
19:10	59.8	59.8	59.8	84	55.0	2	7	248	0.00	29.492 
19:15	59.6	59.6	59.6	84	54.8	2	6	248	0.00	29.500 
19:20	59.6	59.6	59.6	84	54.8	2	5	248	0.00	29.500 
19:25	59.5	59.5	59.5	84	54.7	2	6	248	0.00	29.500 
19:30	59.5	59.5	59.5	84	54.7	3	7	248	0.00	29.508 
19:35	59.3	59.3	59.3	83	54.1	2	7	248	0.00	29.508 
19:40	59.2	59.2	59.2	82	53.7	2	6	248	0.00	29.508 
19:45	59.2	59.2	59.2	81	53.4	3	10	248	0.00	29.510 
19:50	59.0	59.0	59.0	81	53.2	3	7	248	0.00	29.510 
19:55	58.9	58.9	58.9	82	53.4	1	4	248	0.00	29.510 
20:00	58.7	58.7	58.7	82	53.2	2	7	270	0.00	29.521 
20:05	58.7	58.7	58.7	81	52.9	3	9	248	0.00	29.521 
20:10	58.6	58.6	58.6	81	52.8	2	5	248	0.00	29.521 
20:15	58.6	58.6	58.6	81	52.8	3	7	248	0.00	29.528 
20:20	58.4	58.4	58.4	81	52.6	2	6	270	0.00	29.528 
20:25	58.3	58.3	58.3	81	52.5	2	7	270	0.00	29.528 
20:30	58.0	58.0	58.0	80	51.9	3	9	248	0.00	29.530 
20:35	57.8	57.8	57.8	80	51.7	2	5	270	0.00	29.530 
20:40	57.6	57.6	57.6	80	51.5	2	6	248	0.00	29.530 
20:45	57.3	57.3	57.3	81	51.5	3	8	270	0.00	29.542 
20:50	57.0	57.0	57.0	81	51.2	3	8	270	0.00	29.542 
20:55	56.6	56.6	56.6	82	51.2	3	7	270	0.00	29.542 
21:00	56.3	56.3	56.3	82	50.9	3	6	270	0.00	29.547 
21:05	56.0	56.0	56.0	83	50.9	2	7	292	0.00	29.547 
21:10	55.9	55.9	55.9	83	50.8	2	5	248	0.00	29.547 
21:15	55.7	55.7	55.7	83	50.6	2	5	248	0.00	29.550 
21:20	55.4	55.4	55.4	83	50.3	2	5	248	0.00	29.550 
21:25	55.3	55.3	55.3	83	50.2	3	7	248	0.00	29.550 
21:30	55.1	55.1	55.1	82	49.7	2	4	248	0.00	29.556 
21:35	54.8	54.8	54.8	85	50.4	2	4	248	0.00	29.556 
21:40	54.7	54.7	54.7	82	49.3	2	7	292	0.00	29.556 
21:45	54.5	54.5	54.5	82	49.1	2	6	248	0.00	29.557 
21:50	54.4	54.4	54.4	82	49.0	2	4	248	0.00	29.557 
21:55	54.4	54.4	54.4	81	48.7	3	11	248	0.00	29.557 
22:00	54.2	54.2	54.2	81	48.5	3	9	248	0.00	29.567 
22:05	54.2	54.2	54.2	80	48.2	3	7	270	0.00	29.567 
22:10	54.2	54.2	54.2	80	48.2	3	9	270	0.00	29.567 
22:15	54.1	54.1	54.1	80	48.1	3	10	248	0.00	29.573 
22:20	54.1	54.1	54.1	80	48.1	2	6	248	0.00	29.573 
22:25	53.9	53.9	53.9	80	47.9	3	7	248	0.00	29.573 
22:30	53.8	53.8	53.8	80	47.8	3	7	270	0.00	29.584 
22:35	53.6	53.6	53.6	80	47.6	2	6	270	0.00	29.584 
22:40	53.3	53.3	53.3	79	47.0	2	6	270	0.00	29.584 
22:45	53.3	53.3	53.3	79	47.0	3	7	248	0.00	29.579 
22:50	53.2	53.2	53.2	79	46.9	2	5	248	0.00	29.579 
22:55	53.1	53.1	53.1	79	46.8	2	6	270	0.00	29.579 
23:00	52.9	52.9	52.9	80	46.9	2	5	248	0.00	29.588 
23:05	52.6	52.6	52.6	81	46.9	3	10	248	0.00	29.588 
23:10	52.3	52.3	52.3	81	46.6	2	6	248	0.00	29.588 
23:15	52.2	52.2	52.2	81	46.5	3	5	248	0.00	29.581 
23:20	52.0	52.0	52.0	81	46.4	2	4	248	0.00	29.581 
23:25	51.9	51.9	51.9	81	46.3	2	7	248	0.00	29.581 
23:30	51.7	51.7	51.7	81	46.1	1	4	248	0.00	29.581 
23:35	51.6	51.6	51.6	82	46.3	1	4	248	0.00	29.581 
23:40	51.4	51.4	51.4	82	46.1	2	5	315	0.00	29.581 
23:45	51.4	51.4	51.4	81	45.8	2	5	270	0.00	29.579 
23:50	51.3	51.3	51.3	81	45.7	4	10	270	0.00	29.579 
23:55	51.1	51.1	51.1	81	45.5	2	6	270	0.00	29.579 

CoCoRaHS
IN-AL-39
A2 Web Hosting
Creative Commons License
GoDaddy
search engine by freefind advanced

loaded 2018-11-15 03:04:45 • last modified 2010-11-18 10:43:29
Privacy PolicyDisclaimer
• wx.awcolley.com is powered by PmWiki v.2002016 •
• all content (unless otherwise noted) © 2018 A W Colley